createdAt,value
2022-08-12T00:00:47.979Z,100301.09
2022-08-12T00:03:51.165Z,100286.49
2022-08-12T00:05:19.053Z,100299.89
2022-08-12T00:06:51.507Z,100292.01
2022-08-12T00:08:28.667Z,100286.68
2022-08-12T00:09:50.060Z,100291.39
2022-08-12T00:12:52.349Z,100283.58
2022-08-12T00:14:19.519Z,100285.61
2022-08-12T00:15:48.871Z,100280.72
2022-08-12T00:17:19.611Z,100283.72
2022-08-12T00:20:22.754Z,100282.73
2022-08-12T00:23:25.340Z,100281.46
2022-08-12T00:24:53.900Z,100297.57
2022-08-12T00:26:24.384Z,100297.41
2022-08-12T00:27:51.580Z,100296.02
2022-08-12T00:32:39.881Z,100285.73
2022-08-12T00:34:09.685Z,100287.52
2022-08-12T00:37:16.223Z,100284.98
2022-08-12T00:40:17.741Z,100290.40
2022-08-12T00:41:52.767Z,100291.06
2022-08-12T00:43:04.191Z,100288.44
2022-08-12T00:44:16.555Z,100281.83
2022-08-12T00:46:59.073Z,100293.83
2022-08-12T00:48:09.159Z,100282.50
2022-08-12T00:49:21.026Z,100291.91
2022-08-12T00:50:32.734Z,100291.45
2022-08-12T00:53:19.465Z,100294.84
2022-08-12T00:54:29.560Z,100293.91
2022-08-12T00:57:04.857Z,100297.99
2022-08-12T00:59:35.290Z,100299.89
2022-08-12T01:00:45.485Z,100303.06
2022-08-12T01:03:15.192Z,100291.81
2022-08-12T01:04:46.732Z,100304.91
2022-08-12T01:08:13.261Z,100291.13
2022-08-12T01:09:43.120Z,100300.56
2022-08-12T01:11:14.359Z,100302.96
2022-08-12T01:13:44.282Z,100295.77
2022-08-12T01:14:55.090Z,100293.72
2022-08-12T01:17:25.737Z,100288.53
2022-08-12T01:19:55.600Z,100292.52
2022-08-12T01:22:54.897Z,100296.17
2022-08-12T01:24:34.268Z,100293.80
2022-08-12T01:27:07.428Z,100288.56
2022-08-12T01:28:17.907Z,100295.44
2022-08-12T01:29:33.238Z,100299.73
2022-08-12T01:30:44.869Z,100289.67
2022-08-12T01:31:57.627Z,100289.84
2022-08-12T01:34:37.353Z,100284.27
2022-08-12T01:37:11.045Z,100281.31
2022-08-12T01:40:33.580Z,100289.02
2022-08-12T01:42:27.157Z,100284.75
2022-08-12T01:43:38.478Z,100285.32
2022-08-12T01:44:50.610Z,100288.56
2022-08-12T01:52:44.954Z,100299.73
2022-08-12T01:54:15.413Z,100307.63
2022-08-12T01:56:54.884Z,100313.21
2022-08-12T01:59:50.454Z,100310.94
2022-08-12T02:02:25.901Z,100305.03
2022-08-12T02:05:58.089Z,100293.91
2022-08-12T02:09:18.878Z,100293.67
2022-08-12T02:12:47.856Z,100297.52
2022-08-12T02:15:56.542Z,100294.95
2022-08-12T02:19:30.122Z,100302.27
2022-08-12T02:20:51.927Z,100302.30
2022-08-12T02:22:27.562Z,100311.33
2022-08-12T02:23:38.212Z,100306.13
2022-08-12T02:26:08.846Z,100319.70
2022-08-12T02:27:20.660Z,100323.69
2022-08-12T02:29:45.502Z,100316.67
2022-08-12T02:30:56.641Z,100317.94
2022-08-12T02:32:08.801Z,100322.39
2022-08-12T02:33:21.091Z,100314.28
2022-08-12T02:34:31.884Z,100303.86
2022-08-12T02:35:41.914Z,100301.84
2022-08-12T02:36:55.500Z,100315.02
2022-08-12T02:38:10.226Z,100318.41
2022-08-12T02:40:40.784Z,100308.66
2022-08-12T02:41:55.015Z,100308.67
2022-08-12T02:43:27.736Z,100306.11
2022-08-12T02:48:00.106Z,100309.51
2022-08-12T02:48:54.759Z,100311.40
2022-08-12T02:50:08.692Z,100307.12
2022-08-12T02:52:38.463Z,100304.22
2022-08-12T02:54:04.681Z,100303.03
2022-08-12T02:56:29.575Z,100303.38
2022-08-12T02:58:58.457Z,100309.69
2022-08-12T03:03:09.144Z,100309.31
2022-08-12T03:05:49.706Z,100310.67
2022-08-12T03:10:17.714Z,100302.84
2022-08-12T03:11:41.647Z,100310.56
2022-08-12T03:12:53.741Z,100309.55
2022-08-12T03:14:04.179Z,100300.30
2022-08-12T03:15:18.673Z,100302.66
2022-08-12T03:16:33.333Z,100291.59
2022-08-12T03:19:01.282Z,100289.70
2022-08-12T03:21:53.009Z,100290.59
2022-08-12T03:24:18.880Z,100283.91
2022-08-12T03:25:35.776Z,100284.61
2022-08-12T03:26:48.384Z,100282.72
2022-08-12T03:27:58.271Z,100287.69
2022-08-12T03:29:07.654Z,100297.08
2022-08-12T03:30:19.185Z,100292.80
2022-08-12T03:32:54.157Z,100295.70
2022-08-12T03:34:12.085Z,100297.25
2022-08-12T03:36:44.041Z,100301.45
2022-08-12T03:39:19.030Z,100295.93
2022-08-12T03:41:01.224Z,100302.47
2022-08-12T03:44:32.889Z,100302.45
2022-08-12T03:46:01.163Z,100300.45
2022-08-12T03:47:53.467Z,100298.63
2022-08-12T03:49:21.695Z,100307.31
2022-08-12T03:52:43.440Z,100301.83
2022-08-12T03:54:12.433Z,100303.73
2022-08-12T03:55:41.847Z,100308.67
2022-08-12T03:57:11.972Z,100306.64
2022-08-12T04:00:24.307Z,100302.48
2022-08-12T04:02:41.620Z,100300.77
2022-08-12T04:03:52.620Z,100304.36
2022-08-12T04:07:57.925Z,100298.94
2022-08-12T04:08:58.035Z,100304.75
2022-08-12T04:13:40.761Z,100304.38
2022-08-12T04:14:52.214Z,100303.86
2022-08-12T04:16:04.026Z,100305.76
2022-08-12T04:17:13.921Z,100311.73
2022-08-12T04:19:39.604Z,100296.02
2022-08-12T04:22:04.998Z,100284.08
2022-08-12T04:26:01.232Z,100294.65
2022-08-12T04:27:12.821Z,100302.35
2022-08-12T04:28:25.198Z,100300.12
2022-08-12T04:30:52.896Z,100286.23
2022-08-12T04:33:18.817Z,100274.13
2022-08-12T04:35:44.580Z,100297.52
2022-08-12T04:36:54.673Z,100293.78
2022-08-12T04:39:25.618Z,100294.73
2022-08-12T04:40:36.069Z,100288.98
2022-08-12T04:41:50.320Z,100293.08
2022-08-12T04:43:00.572Z,100291.23
2022-08-12T04:45:25.486Z,100296.95
2022-08-12T04:46:37.877Z,100311.17
2022-08-12T04:49:05.667Z,100308.58
2022-08-12T04:50:35.264Z,100309.78
2022-08-12T04:52:50.106Z,100296.58
2022-08-12T04:54:01.482Z,100310.61
2022-08-12T04:55:12.132Z,100297.98
2022-08-12T04:56:24.673Z,100292.41
2022-08-12T04:57:34.730Z,100293.39
2022-08-12T04:58:49.437Z,100283.71
2022-08-12T05:01:12.658Z,100269.00
2022-08-12T05:03:57.661Z,100271.00
2022-08-12T05:06:27.204Z,100283.55
2022-08-12T05:09:10.969Z,100282.27
2022-08-12T05:11:35.167Z,100287.89
2022-08-12T05:12:48.042Z,100283.61
2022-08-12T05:15:27.704Z,100288.28
2022-08-12T05:16:31.116Z,100279.56
2022-08-12T05:17:42.728Z,100288.47
2022-08-12T05:18:52.828Z,100296.87
2022-08-12T05:21:17.774Z,100281.36
2022-08-12T05:22:28.139Z,100296.02
2022-08-12T05:23:39.326Z,100292.91
2022-08-12T05:26:06.056Z,100282.92
2022-08-12T05:28:31.906Z,100280.23
2022-08-12T05:31:11.431Z,100282.44
2022-08-12T05:32:20.771Z,100276.34
2022-08-12T05:34:56.101Z,100276.41
2022-08-12T05:36:07.386Z,100285.06
2022-08-12T05:37:16.478Z,100282.70
2022-08-12T05:38:45.488Z,100282.58
2022-08-12T05:39:54.722Z,100288.20
2022-08-12T05:42:33.674Z,100274.41
2022-08-12T05:44:52.274Z,100275.19
2022-08-12T05:47:17.993Z,100274.71
2022-08-12T05:49:55.828Z,100283.14
2022-08-12T05:52:20.169Z,100272.45
2022-08-12T05:53:30.719Z,100289.95
2022-08-12T05:55:59.309Z,100280.01
2022-08-12T05:57:09.385Z,100279.71
2022-08-12T05:59:37.318Z,100282.59
2022-08-12T06:02:09.720Z,100292.41
2022-08-12T06:06:00.498Z,100298.27
2022-08-12T06:08:27.448Z,100313.30
2022-08-12T06:12:23.453Z,100277.34
2022-08-12T06:13:54.319Z,100295.56
2022-08-12T06:16:07.450Z,100305.95
2022-08-12T06:17:16.706Z,100294.53
2022-08-12T06:18:29.840Z,100294.44
2022-08-12T06:20:55.366Z,100303.24
2022-08-12T06:22:06.343Z,100307.33
2022-08-12T06:23:16.619Z,100300.57
2022-08-12T06:24:28.997Z,100300.88
2022-08-12T06:26:53.459Z,100293.69
2022-08-12T06:28:07.441Z,100293.95
2022-08-12T06:30:37.810Z,100293.88
2022-08-12T06:31:53.940Z,100292.66
2022-08-12T06:35:23.226Z,100296.37
2022-08-12T06:37:00.771Z,100279.55
2022-08-12T06:38:25.338Z,100286.75
2022-08-12T06:39:34.986Z,100295.23
2022-08-12T06:41:04.603Z,100285.92
2022-08-12T06:44:06.140Z,100291.14
2022-08-12T06:45:00.770Z,100297.91
2022-08-12T06:46:13.264Z,100293.34
2022-08-12T06:47:22.274Z,100293.84
2022-08-12T06:49:49.157Z,100291.35
2022-08-12T06:52:17.171Z,100291.58
2022-08-12T06:56:12.659Z,100279.97
2022-08-12T06:58:39.427Z,100290.00
2022-08-12T07:02:37.202Z,100274.20
2022-08-12T07:03:47.952Z,100274.41
2022-08-12T07:06:13.913Z,100277.63
2022-08-12T07:08:39.259Z,100285.88
2022-08-12T07:11:17.432Z,100296.73
2022-08-12T07:12:28.664Z,100281.54
2022-08-12T07:14:11.153Z,100284.37
2022-08-12T07:14:56.787Z,100289.03
2022-08-12T07:16:07.093Z,100293.63
2022-08-12T07:17:15.988Z,100286.62
2022-08-12T07:19:50.153Z,100279.54
2022-08-12T07:22:24.373Z,100279.22
2022-08-12T07:26:40.745Z,100295.77
2022-08-12T07:27:54.916Z,100297.48
2022-08-12T07:29:05.609Z,100295.41
2022-08-12T07:30:16.028Z,100299.73
2022-08-12T07:31:28.985Z,100298.09
2022-08-12T07:32:38.369Z,100302.55
2022-08-12T07:33:59.374Z,100289.34
2022-08-12T07:35:08.741Z,100291.42
2022-08-12T07:36:20.976Z,100284.16
2022-08-12T07:37:31.065Z,100273.81
2022-08-12T07:38:45.271Z,100279.11
2022-08-12T07:39:59.601Z,100272.13
2022-08-12T07:41:15.701Z,100273.91
2022-08-12T07:43:42.677Z,100273.41
2022-08-12T07:44:52.768Z,100277.20
2022-08-12T07:46:04.588Z,100267.08
2022-08-12T07:47:15.296Z,100281.58
2022-08-12T07:48:26.151Z,100272.00
2022-08-12T07:50:51.588Z,100267.39
2022-08-12T07:52:00.611Z,100267.35
2022-08-12T07:54:26.158Z,100262.02
2022-08-12T07:55:37.271Z,100272.31
2022-08-12T07:56:47.160Z,100278.92
2022-08-12T07:57:59.375Z,100271.00
2022-08-12T07:59:09.462Z,100269.94
2022-08-12T08:01:38.152Z,100263.13
2022-08-12T08:04:24.242Z,100261.42
2022-08-12T08:05:56.020Z,100265.97
2022-08-12T08:08:25.811Z,100254.11
2022-08-12T08:09:36.024Z,100258.03
2022-08-12T08:10:45.678Z,100265.31
2022-08-12T08:12:18.503Z,100266.28
2022-08-12T08:14:40.210Z,100268.83
2022-08-12T08:16:02.952Z,100267.39
2022-08-12T08:17:05.820Z,100264.27
2022-08-12T08:18:26.339Z,100261.69
2022-08-12T08:19:33.276Z,100274.66
2022-08-12T08:20:46.841Z,100258.37
2022-08-12T08:21:58.692Z,100263.53
2022-08-12T08:23:11.698Z,100259.97
2022-08-12T08:24:27.821Z,100252.39
2022-08-12T08:26:56.541Z,100250.13
2022-08-12T08:29:25.997Z,100259.07
2022-08-12T08:32:09.801Z,100243.80
2022-08-12T08:33:23.699Z,100255.95
2022-08-12T08:35:48.026Z,100233.82
2022-08-12T08:36:58.511Z,100237.16
2022-08-12T08:39:27.868Z,100237.36
2022-08-12T08:42:32.042Z,100251.57
2022-08-12T08:45:12.676Z,100251.83
2022-08-12T08:46:25.146Z,100266.47
2022-08-12T08:49:01.066Z,100247.52
2022-08-12T08:51:28.361Z,100245.59
2022-08-12T08:52:40.289Z,100257.85
2022-08-12T08:53:52.936Z,100263.61
2022-08-12T08:55:00.632Z,100263.83
2022-08-12T08:56:11.210Z,100251.98
2022-08-12T08:57:22.295Z,100235.64
2022-08-12T08:59:46.633Z,100230.88
2022-08-12T09:02:14.777Z,100244.89
2022-08-12T09:05:11.314Z,100250.73
2022-08-12T09:08:32.664Z,100263.91
2022-08-12T09:16:50.175Z,100280.34
2022-08-12T09:18:00.643Z,100296.52
2022-08-12T09:28:18.168Z,100303.13
2022-08-12T09:33:04.380Z,100318.55
2022-08-12T09:34:27.533Z,100307.70
2022-08-12T09:37:00.216Z,100318.34
2022-08-12T09:38:05.212Z,100327.63
2022-08-12T09:40:57.841Z,100334.97
2022-08-12T09:42:33.228Z,100344.45
2022-08-12T09:45:18.254Z,100324.25
2022-08-12T09:46:06.694Z,100322.59
2022-08-12T09:48:35.214Z,100309.62
2022-08-12T09:51:00.054Z,100308.73
2022-08-12T09:54:50.281Z,100316.26
2022-08-12T09:58:46.457Z,100319.17
2022-08-12T10:00:16.570Z,100320.62
2022-08-12T10:02:43.994Z,100320.89
2022-08-12T10:05:13.277Z,100312.41
2022-08-12T10:06:32.259Z,100316.38
2022-08-12T10:07:40.680Z,100319.48
2022-08-12T10:10:08.123Z,100323.64
2022-08-12T10:12:11.908Z,100323.96
2022-08-12T10:13:11.397Z,100324.22
2022-08-12T10:16:02.145Z,100324.72
2022-08-12T10:16:44.969Z,100338.44
2022-08-12T10:19:17.670Z,100328.68
2022-08-12T10:20:23.638Z,100323.38
2022-08-12T10:21:38.064Z,100350.36
2022-08-12T10:24:20.124Z,100333.09
2022-08-12T10:26:33.986Z,100346.05
2022-08-12T10:27:17.943Z,100341.91
2022-08-12T10:30:41.783Z,100359.11
2022-08-12T10:34:06.690Z,100343.43
2022-08-12T10:35:09.223Z,100341.09
2022-08-12T10:38:32.456Z,100327.12
2022-08-12T10:41:57.047Z,100336.73
2022-08-12T10:44:38.543Z,100338.58
2022-08-12T10:47:26.663Z,100349.52
2022-08-12T10:50:05.367Z,100344.01
2022-08-12T10:51:51.402Z,100352.05
2022-08-12T10:52:47.197Z,100339.16
2022-08-12T10:53:45.989Z,100338.16
2022-08-12T10:55:57.826Z,100325.97
2022-08-12T10:58:27.883Z,100333.82
2022-08-12T11:04:23.067Z,100326.77
2022-08-12T11:04:23.646Z,100333.88
2022-08-12T11:08:34.303Z,100337.57
2022-08-12T11:08:50.820Z,100332.31
2022-08-12T11:10:02.386Z,100324.67
2022-08-12T11:11:16.921Z,100322.92
2022-08-12T11:13:48.359Z,100317.55
2022-08-12T11:14:59.582Z,100319.80
2022-08-12T11:16:19.478Z,100315.53
2022-08-12T11:18:35.545Z,100315.13
2022-08-12T11:19:45.140Z,100307.38
2022-08-12T11:22:12.323Z,100297.72
2022-08-12T11:23:25.323Z,100298.72
2022-08-12T11:25:58.222Z,100296.06
2022-08-12T11:28:34.686Z,100292.94
2022-08-12T11:31:00.594Z,100315.75
2022-08-12T11:32:09.602Z,100314.23
2022-08-12T11:33:24.420Z,100321.55
2022-08-12T11:35:47.842Z,100308.53
2022-08-12T11:38:21.213Z,100303.23
2022-08-12T11:42:25.813Z,100305.98
2022-08-12T11:44:48.253Z,100304.06
2022-08-12T11:47:26.764Z,100308.42
2022-08-12T11:48:51.323Z,100307.97
2022-08-12T11:51:09.285Z,100303.28
2022-08-12T11:53:57.724Z,100295.23
2022-08-12T11:58:13.040Z,100312.63
2022-08-12T12:02:43.941Z,100320.38
2022-08-12T12:05:10.853Z,100320.22
2022-08-12T12:08:38.015Z,100329.39
2022-08-12T12:09:01.179Z,100333.70
2022-08-12T12:10:15.099Z,100332.83
2022-08-12T12:11:25.320Z,100339.00
2022-08-12T12:12:35.227Z,100338.39
2022-08-12T12:15:06.677Z,100331.69
2022-08-12T12:17:26.416Z,100329.86
2022-08-12T12:20:10.527Z,100337.45
2022-08-12T12:22:39.088Z,100337.98
2022-08-12T12:23:48.183Z,100332.41
2022-08-12T12:24:58.065Z,100332.61
2022-08-12T12:26:35.715Z,100338.48
2022-08-12T12:28:39.605Z,100343.92
2022-08-12T12:30:19.849Z,100327.27
2022-08-12T12:32:19.308Z,100318.05
2022-08-12T12:33:56.892Z,100323.28
2022-08-12T12:36:17.123Z,100311.74
2022-08-12T12:38:43.393Z,100322.37
2022-08-12T12:42:55.269Z,100299.65
2022-08-12T12:44:04.038Z,100301.98
2022-08-12T12:45:19.015Z,100313.30
2022-08-12T12:46:24.400Z,100315.30
2022-08-12T12:47:35.669Z,100323.14
2022-08-12T12:48:46.842Z,100325.52
2022-08-12T12:49:56.008Z,100332.32
2022-08-12T12:51:48.235Z,100319.17
2022-08-12T12:54:06.210Z,100328.80
2022-08-12T12:55:03.773Z,100324.05
2022-08-12T12:56:34.495Z,100321.30
2022-08-12T12:58:00.464Z,100310.73
2022-08-12T13:00:17.346Z,100307.11
2022-08-12T13:02:54.247Z,100325.41
2022-08-12T13:05:42.156Z,100312.06
2022-08-12T13:06:52.404Z,100307.17
2022-08-12T13:08:05.179Z,100309.33
2022-08-12T13:10:36.386Z,100299.39
2022-08-12T13:12:57.805Z,100289.23
2022-08-12T13:16:51.917Z,100278.62
2022-08-12T13:18:05.219Z,100301.72
2022-08-12T13:19:16.677Z,100301.75
2022-08-12T13:20:38.235Z,100293.66
2022-08-12T13:23:00.013Z,100293.50
2022-08-12T13:25:27.177Z,100291.80
2022-08-12T13:26:40.621Z,100287.20
2022-08-12T13:27:50.771Z,100287.47
2022-08-12T13:30:23.657Z,100294.77
2022-08-12T13:31:46.424Z,100295.58
2022-08-12T13:32:58.838Z,100302.80
2022-08-12T13:36:02.796Z,100298.52
2022-08-12T13:36:36.483Z,100303.66
2022-08-12T13:39:10.406Z,100296.55
2022-08-12T13:41:41.441Z,100298.49
2022-08-12T13:44:20.080Z,100311.36
2022-08-12T13:46:58.855Z,100315.86
2022-08-12T13:49:54.134Z,100329.98
2022-08-12T13:53:23.764Z,100309.52
2022-08-12T13:55:49.352Z,100306.34
2022-08-12T13:58:26.072Z,100301.87
2022-08-12T13:59:47.953Z,100309.93
2022-08-12T14:00:52.354Z,100301.84
2022-08-12T14:06:04.344Z,100301.42
2022-08-12T14:08:34.518Z,100306.75
2022-08-12T14:11:43.986Z,100307.28
2022-08-12T14:14:13.090Z,100298.64
2022-08-12T14:18:18.479Z,100278.52
2022-08-12T14:19:32.932Z,100278.31
2022-08-12T14:20:43.772Z,100270.47
2022-08-12T14:22:00.964Z,100266.45
2022-08-12T14:24:21.881Z,100267.56
2022-08-12T14:26:50.596Z,100252.31
2022-08-12T14:31:18.162Z,100258.03
2022-08-12T14:33:44.297Z,100270.31
2022-08-12T14:37:55.034Z,100263.31
2022-08-12T14:40:18.339Z,100265.64
2022-08-12T14:42:55.584Z,100274.09
2022-08-12T14:45:24.399Z,100270.52
2022-08-12T14:47:58.651Z,100272.41
2022-08-12T14:51:02.996Z,100270.70
2022-08-12T14:52:44.000Z,100281.72
2022-08-12T14:56:59.901Z,100273.28
2022-08-12T14:57:23.617Z,100274.51
2022-08-12T14:58:02.877Z,100281.28
2022-08-12T14:59:56.448Z,100276.64
2022-08-12T15:02:22.153Z,100273.28
2022-08-12T15:05:03.444Z,100273.67
2022-08-12T15:08:58.006Z,100263.91
2022-08-12T15:11:25.570Z,100254.39
2022-08-12T15:14:06.340Z,100253.05
2022-08-12T15:16:31.322Z,100244.78
2022-08-12T15:18:56.474Z,100244.75
2022-08-12T15:22:35.391Z,100256.01
2022-08-12T15:25:24.629Z,100254.09
2022-08-12T15:26:40.666Z,100259.53
2022-08-12T15:29:06.348Z,100254.33
2022-08-12T15:31:59.618Z,100246.73
2022-08-12T15:35:31.476Z,100237.39
2022-08-12T15:36:54.886Z,100241.55
2022-08-12T15:39:18.275Z,100233.11
2022-08-12T15:40:29.866Z,100234.47
2022-08-12T15:42:56.786Z,100216.00
2022-08-12T15:45:23.958Z,100218.12
2022-08-12T15:49:18.952Z,100214.95
2022-08-12T15:51:58.133Z,100220.28
2022-08-12T15:54:33.569Z,100235.89
2022-08-12T15:56:58.020Z,100221.47
2022-08-12T15:58:08.983Z,100229.30
2022-08-12T16:00:38.177Z,100229.14
2022-08-12T16:03:14.139Z,100231.30
2022-08-12T16:07:05.984Z,100248.81
2022-08-12T16:09:45.318Z,100249.48
2022-08-12T16:12:12.457Z,100243.94
2022-08-12T16:13:34.278Z,100234.39
2022-08-12T16:16:02.667Z,100220.88
2022-08-12T16:17:04.583Z,100232.84
2022-08-12T16:20:03.566Z,100218.08
2022-08-12T16:20:47.346Z,100223.24
2022-08-12T16:23:35.894Z,100227.29
2022-08-12T16:28:42.410Z,100212.91
2022-08-12T16:31:16.977Z,100204.45
2022-08-12T16:33:59.345Z,100195.94
2022-08-12T16:36:28.108Z,100198.77
2022-08-12T16:38:53.959Z,100182.48
2022-08-12T16:42:54.344Z,100182.73
2022-08-12T16:45:24.347Z,100170.09
2022-08-12T16:47:58.670Z,100164.89
2022-08-12T16:50:21.668Z,100173.34
2022-08-12T16:53:06.185Z,100177.39
2022-08-12T16:55:42.123Z,100163.09
2022-08-12T16:58:25.528Z,100177.23
2022-08-12T17:02:31.976Z,100183.06
2022-08-12T17:03:28.862Z,100200.27
2022-08-12T17:04:42.586Z,100201.78
2022-08-12T17:07:15.391Z,100196.65
2022-08-12T17:09:46.125Z,100198.27
2022-08-12T17:12:22.866Z,100207.48
2022-08-12T17:14:52.819Z,100202.27
2022-08-12T17:17:26.499Z,100208.45
2022-08-12T17:21:40.032Z,100202.94
2022-08-12T17:22:36.512Z,100207.77
2022-08-12T17:23:53.180Z,100213.47
2022-08-12T17:26:28.249Z,100201.03
2022-08-12T17:28:57.595Z,100187.27
2022-08-12T17:32:00.163Z,100193.40
2022-08-12T17:35:37.288Z,100200.36
2022-08-12T17:38:07.409Z,100201.40
2022-08-12T17:40:50.136Z,100209.34
2022-08-12T17:42:02.657Z,100209.55
2022-08-12T17:43:56.464Z,100205.55
2022-08-12T17:44:35.869Z,100196.21
2022-08-12T17:47:05.191Z,100200.27
2022-08-12T17:50:01.899Z,100191.90
2022-08-12T17:53:43.504Z,100190.39
2022-08-12T17:54:52.350Z,100194.50
2022-08-12T17:57:20.117Z,100189.48
2022-08-12T17:58:36.974Z,100189.64
2022-08-12T18:02:34.936Z,100186.52
2022-08-12T18:04:14.055Z,100187.30
2022-08-12T18:06:16.751Z,100176.77
2022-08-12T18:07:28.745Z,100188.95
2022-08-12T18:10:01.285Z,100181.39
2022-08-12T18:12:03.600Z,100181.95
2022-08-12T18:12:47.850Z,100180.91
2022-08-12T18:15:26.309Z,100184.39
2022-08-12T18:17:47.376Z,100180.59
2022-08-12T18:20:19.332Z,100180.39
2022-08-12T18:22:02.191Z,100190.30
2022-08-12T18:24:00.341Z,100187.39
2022-08-12T18:26:30.659Z,100192.10
2022-08-12T18:29:09.822Z,100191.59
2022-08-12T18:30:29.834Z,100197.05
2022-08-12T18:31:44.260Z,100203.38
2022-08-12T18:34:04.456Z,100200.94
2022-08-12T18:35:15.069Z,100203.73
2022-08-12T18:36:27.828Z,100201.88
2022-08-12T18:38:59.484Z,100190.88
2022-08-12T18:41:46.665Z,100192.11
2022-08-12T18:44:27.233Z,100199.84
2022-08-12T18:47:02.472Z,100196.36
2022-08-12T18:48:15.255Z,100198.39
2022-08-12T18:51:11.393Z,100186.83
2022-08-12T18:54:06.297Z,100198.09
2022-08-12T18:58:07.204Z,100190.34
2022-08-12T19:03:38.664Z,100189.51
2022-08-12T19:05:54.476Z,100187.91
2022-08-12T19:08:30.976Z,100200.50
2022-08-12T19:09:58.231Z,100193.70
2022-08-12T19:12:59.163Z,100190.81
2022-08-12T19:14:28.030Z,100184.02
2022-08-12T19:15:42.251Z,100195.44
2022-08-12T19:16:54.862Z,100194.13
2022-08-12T19:18:10.701Z,100192.46
2022-08-12T19:20:39.258Z,100187.39
2022-08-12T19:23:16.479Z,100188.27
2022-08-12T19:27:25.625Z,100186.70
2022-08-12T19:30:05.974Z,100186.98
2022-08-12T19:31:58.245Z,100185.00
2022-08-12T19:34:37.698Z,100181.89
2022-08-12T19:36:06.751Z,100182.45
2022-08-12T19:36:49.167Z,100179.44
2022-08-12T19:38:06.412Z,100174.81
2022-08-12T19:40:37.295Z,100165.75
2022-08-12T19:43:19.167Z,100163.62
2022-08-12T19:45:43.925Z,100155.63
2022-08-12T19:49:40.551Z,100145.11
2022-08-12T19:52:11.415Z,100138.22
2022-08-12T19:56:09.269Z,100136.97
2022-08-12T19:58:34.207Z,100136.19
2022-08-12T20:00:58.709Z,100132.36
2022-08-12T20:03:41.351Z,100122.39
2022-08-12T20:06:13.539Z,100122.55
2022-08-12T20:07:24.274Z,100126.44
2022-08-12T20:09:51.175Z,100122.97
2022-08-12T20:12:31.828Z,100126.71
2022-08-12T20:16:47.505Z,100123.22
2022-08-12T20:17:36.273Z,100134.80
2022-08-12T20:20:17.669Z,100141.22
2022-08-12T20:22:46.437Z,100156.23
2022-08-12T20:24:15.625Z,100163.52
2022-08-12T20:26:42.233Z,100170.44
2022-08-12T20:29:11.956Z,100156.89
2022-08-12T20:33:08.423Z,100168.73
2022-08-12T20:36:05.848Z,100168.05
2022-08-12T20:40:58.733Z,100180.89
2022-08-12T20:42:09.996Z,100202.50
2022-08-12T20:43:24.096Z,100192.08
2022-08-12T20:44:32.109Z,100198.89
2022-08-12T20:47:03.277Z,100205.63
2022-08-12T20:49:31.815Z,100251.03
2022-08-12T20:53:57.591Z,100206.20
2022-08-12T20:54:49.435Z,100206.23
2022-08-12T20:57:14.624Z,100196.73
2022-08-12T20:59:47.776Z,100187.83
2022-08-12T21:00:53.451Z,100189.53
2022-08-12T21:03:52.787Z,100193.04
2022-08-12T21:06:58.155Z,100202.99
2022-08-12T21:10:58.965Z,100195.73
2022-08-12T21:12:27.741Z,100208.77
2022-08-12T21:13:20.945Z,100200.93
2022-08-12T21:14:39.962Z,100195.44
2022-08-12T21:15:54.566Z,100184.44
2022-08-12T21:18:28.926Z,100186.16
2022-08-12T21:20:49.041Z,100199.36
2022-08-12T21:23:30.753Z,100195.20
2022-08-12T21:24:46.656Z,100204.52
2022-08-12T21:25:55.500Z,100190.11
2022-08-12T21:27:07.522Z,100188.23
2022-08-12T21:29:40.147Z,100182.77
2022-08-12T21:31:10.858Z,100191.95
2022-08-12T21:33:16.894Z,100196.08
2022-08-12T21:37:26.775Z,100171.95
2022-08-12T21:38:34.681Z,100175.87
2022-08-12T21:39:38.919Z,100177.58
2022-08-12T21:40:52.021Z,100172.92
2022-08-12T21:42:06.508Z,100158.99
2022-08-12T21:43:16.705Z,100163.64
2022-08-12T21:45:44.222Z,100165.32
2022-08-12T21:47:05.031Z,100161.41
2022-08-12T21:48:17.208Z,100160.90
2022-08-12T21:50:44.159Z,100160.80
2022-08-12T21:51:57.055Z,100167.50
2022-08-12T21:53:10.399Z,100166.83
2022-08-12T21:54:22.598Z,100169.78
2022-08-12T21:55:34.640Z,100164.95
2022-08-12T21:56:46.276Z,100171.28
2022-08-12T21:59:15.377Z,100160.42
2022-08-12T22:01:48.994Z,100160.42
2022-08-12T22:04:51.511Z,100163.64
2022-08-12T22:07:54.875Z,100165.15
2022-08-12T22:10:28.247Z,100159.13
2022-08-12T22:11:42.247Z,100163.38
2022-08-12T22:14:08.337Z,100147.02
2022-08-12T22:15:21.830Z,100155.60
2022-08-12T22:16:31.094Z,100151.11
2022-08-12T22:18:57.633Z,100166.25
2022-08-12T22:20:22.087Z,100179.48
2022-08-12T22:21:30.971Z,100173.49
2022-08-12T22:22:41.869Z,100164.15
2022-08-12T22:24:04.968Z,100163.25
2022-08-12T22:26:29.486Z,100159.99
2022-08-12T22:27:54.911Z,100161.72
2022-08-12T22:30:59.295Z,100162.20
2022-08-12T22:33:24.766Z,100149.19
2022-08-12T22:36:04.708Z,100157.55
2022-08-12T22:37:19.633Z,100168.72
2022-08-12T22:38:29.722Z,100157.86
2022-08-12T22:39:44.108Z,100168.16
2022-08-12T22:42:35.200Z,100176.14
2022-08-12T22:45:59.173Z,100178.30
2022-08-12T22:47:53.972Z,100190.44
2022-08-12T22:48:50.643Z,100181.25
2022-08-12T22:51:06.993Z,100165.18
2022-08-12T22:53:36.152Z,100152.89
2022-08-12T22:54:45.995Z,100153.77
2022-08-12T22:56:05.593Z,100148.05
2022-08-12T22:58:24.602Z,100141.83
2022-08-12T22:59:55.044Z,100135.77
2022-08-12T23:02:07.894Z,100138.50
2022-08-12T23:04:35.670Z,100140.87
2022-08-12T23:07:12.243Z,100166.17
2022-08-12T23:08:29.622Z,100160.97
2022-08-12T23:09:48.352Z,100165.34
2022-08-12T23:10:47.252Z,100168.19
2022-08-12T23:13:43.175Z,100172.80
2022-08-12T23:14:45.397Z,100170.06
2022-08-12T23:17:21.489Z,100164.30
2022-08-12T23:18:29.919Z,100177.70
2022-08-12T23:19:38.269Z,100176.30
2022-08-12T23:20:47.556Z,100175.08
2022-08-12T23:23:18.466Z,100182.94
2022-08-12T23:24:31.580Z,100181.89
2022-08-12T23:25:54.957Z,100179.61
2022-08-12T23:27:13.467Z,100178.20
2022-08-12T23:28:42.450Z,100181.78
2022-08-12T23:31:06.845Z,100164.30
2022-08-12T23:32:35.111Z,100176.75
2022-08-12T23:34:02.549Z,100182.50
2022-08-12T23:34:47.748Z,100180.26
2022-08-12T23:36:02.485Z,100169.75
2022-08-12T23:37:09.319Z,100179.87
2022-08-12T23:38:31.032Z,100169.75
2022-08-12T23:40:13.678Z,100169.75
2022-08-12T23:40:45.594Z,100169.15
2022-08-12T23:42:17.536Z,100166.86
2022-08-12T23:43:12.280Z,100169.84
2022-08-12T23:45:40.765Z,100169.91
2022-08-12T23:48:40.029Z,100167.47
2022-08-12T23:49:57.183Z,100171.66
2022-08-12T23:51:03.533Z,100179.28
2022-08-12T23:52:15.511Z,100162.57
2022-08-12T23:54:58.412Z,100154.69
2022-08-12T23:55:59.720Z,100155.32